createdAt,value
2022-11-10T00:03:35.491Z,11.25
2022-11-10T00:08:56.608Z,8.70
2022-11-10T00:14:36.849Z,13.27
2022-11-10T00:19:58.553Z,7.55
2022-11-10T00:25:20.420Z,8.80
2022-11-10T00:30:46.656Z,12.02
2022-11-10T00:36:09.055Z,12.75
2022-11-10T00:41:30.081Z,14.35
2022-11-10T00:46:52.605Z,15.57
2022-11-10T00:52:13.923Z,14.68
2022-11-10T00:57:35.322Z,14.27
2022-11-10T01:02:58.022Z,16.60
2022-11-10T01:08:19.247Z,10.10
2022-11-10T01:13:40.604Z,12.93
2022-11-10T01:19:04.482Z,9.25
2022-11-10T01:24:25.747Z,12.32
2022-11-10T01:29:46.861Z,9.20
2022-11-10T01:35:10.034Z,11.23
2022-11-10T01:40:31.595Z,11.95
2022-11-10T01:45:54.398Z,12.38
2022-11-10T01:51:21.668Z,10.43
2022-11-10T01:56:46.639Z,10.40
2022-11-10T02:02:13.295Z,12.40
2022-11-10T02:07:36.896Z,10.98
2022-11-10T02:12:58.110Z,14.20
2022-11-10T02:18:19.533Z,11.10
2022-11-10T02:23:48.316Z,11.38
2022-11-10T02:34:31.213Z,11.40
2022-11-10T02:39:53.785Z,12.60
2022-11-10T02:45:15.147Z,12.95
2022-11-10T02:50:36.765Z,13.50
2022-11-10T02:55:59.999Z,13.43
2022-11-10T03:01:21.310Z,11.23
2022-11-10T03:06:42.920Z,17.83
2022-11-10T03:12:05.307Z,18.35
2022-11-10T03:17:26.628Z,15.73
2022-11-10T03:22:48.056Z,19.30
2022-11-10T03:28:11.214Z,16.92
2022-11-10T03:33:33.053Z,19.85
2022-11-10T03:38:54.673Z,17.23
2022-11-10T03:44:17.124Z,21.50
2022-11-10T03:49:38.479Z,22.88
2022-11-10T03:55:03.270Z,22.70
2022-11-10T04:00:26.871Z,16.38
2022-11-10T04:06:05.446Z,22.15
2022-11-10T04:11:45.146Z,21.08
2022-11-10T04:17:08.344Z,24.52
2022-11-10T04:22:43.697Z,21.27
2022-11-10T04:28:05.184Z,22.80
2022-11-10T04:33:28.099Z,28.23
2022-11-10T04:38:49.942Z,29.40
2022-11-10T04:44:10.973Z,28.38
2022-11-10T04:49:33.673Z,26.20
2022-11-10T04:54:54.914Z,28.77
2022-11-10T05:00:17.491Z,28.05
2022-11-10T05:05:40.831Z,26.88
2022-11-10T05:11:02.209Z,27.17
2022-11-10T05:16:23.605Z,29.38
2022-11-10T05:21:46.140Z,24.20
2022-11-10T05:27:08.337Z,25.17
2022-11-10T05:32:29.698Z,23.13
2022-11-10T05:37:52.582Z,22.52
2022-11-10T05:43:13.855Z,26.45
2022-11-10T05:48:34.955Z,25.55
2022-11-10T05:53:57.539Z,19.27
2022-11-10T05:59:18.865Z,22.27
2022-11-10T06:04:40.288Z,24.52
2022-11-10T06:10:03.016Z,22.05
2022-11-10T06:15:25.473Z,21.02
2022-11-10T06:20:47.581Z,28.38
2022-11-10T06:26:10.215Z,21.83
2022-11-10T06:31:31.451Z,19.05
2022-11-10T06:36:52.926Z,18.73
2022-11-10T06:42:15.466Z,18.40
2022-11-10T06:47:37.150Z,17.08
2022-11-10T06:53:00.622Z,23.60
2022-11-10T06:58:23.368Z,27.23
2022-11-10T07:04:05.460Z,23.27
2022-11-10T07:09:26.360Z,26.73
2022-11-10T07:14:48.918Z,18.80
2022-11-10T07:20:11.029Z,17.98
2022-11-10T07:25:35.475Z,18.40
2022-11-10T07:30:58.274Z,21.77
2022-11-10T07:36:19.650Z,23.70
2022-11-10T07:41:40.999Z,24.73
2022-11-10T07:47:03.489Z,18.90
2022-11-10T07:52:24.718Z,26.63
2022-11-10T07:57:45.939Z,25.27
2022-11-10T08:03:11.592Z,28.95
2022-11-10T08:08:32.917Z,27.55
2022-11-10T08:13:54.555Z,22.40
2022-11-10T08:19:17.256Z,23.20
2022-11-10T08:24:38.550Z,24.63
2022-11-10T08:36:21.272Z,22.50
2022-11-10T08:41:42.612Z,29.20
2022-11-10T08:47:03.866Z,24.17
2022-11-10T08:52:26.553Z,28.75
2022-11-10T08:57:48.459Z,28.38
2022-11-10T09:03:13.580Z,26.35
2022-11-10T09:08:36.333Z,22.88
2022-11-10T09:14:05.768Z,28.38
2022-11-10T09:19:27.077Z,23.80
2022-11-10T09:24:48.269Z,22.70
2022-11-10T09:30:17.410Z,57.97
2022-11-10T09:35:39.703Z,26.20
2022-11-10T09:41:03.418Z,25.65
2022-11-10T09:46:33.187Z,27.00
2022-11-10T09:51:55.983Z,24.50
2022-11-10T09:57:21.708Z,25.50
2022-11-10T10:02:51.050Z,24.23
2022-11-10T10:08:16.862Z,25.75
2022-11-10T10:13:57.064Z,27.42
2022-11-10T10:19:27.213Z,22.73
2022-11-10T10:24:50.123Z,27.05
2022-11-10T10:30:19.271Z,25.75
2022-11-10T10:35:42.988Z,25.85
2022-11-10T10:41:20.917Z,27.17
2022-11-10T10:46:48.075Z,28.73
2022-11-10T10:52:14.315Z,30.23
2022-11-10T10:57:35.581Z,33.80
2022-11-10T11:03:04.818Z,23.80
2022-11-10T11:08:28.040Z,22.75
2022-11-10T11:13:49.129Z,16.95
2022-11-10T11:19:10.396Z,18.45
2022-11-10T11:24:38.863Z,19.40
2022-11-10T11:30:07.090Z,19.17
2022-11-10T11:35:34.860Z,20.67
2022-11-10T11:41:08.606Z,20.02
2022-11-10T11:46:36.496Z,19.27
2022-11-10T11:52:09.233Z,22.27
2022-11-10T11:57:42.479Z,19.10
2022-11-10T12:03:33.282Z,17.20
2022-11-10T12:09:01.689Z,39.63
2022-11-10T12:14:34.261Z,20.27
2022-11-10T12:20:04.691Z,16.52
2022-11-10T12:25:32.215Z,18.75
2022-11-10T12:31:01.982Z,17.13
2022-11-10T12:36:27.282Z,14.18
2022-11-10T12:41:54.512Z,13.57
2022-11-10T12:47:21.457Z,18.80
2022-11-10T12:52:47.970Z,19.73
2022-11-10T12:58:14.111Z,15.48
2022-11-10T13:03:39.310Z,13.68
2022-11-10T13:09:00.703Z,13.63
2022-11-10T13:14:25.785Z,13.00
2022-11-10T13:19:53.873Z,21.92
2022-11-10T13:25:52.317Z,15.80
2022-11-10T13:31:42.302Z,13.60
2022-11-10T13:37:45.081Z,32.22
2022-11-10T13:43:27.727Z,13.75
2022-11-10T13:49:15.326Z,22.77
2022-11-10T13:55:05.697Z,48.78
2022-11-10T14:00:29.423Z,13.32
2022-11-10T14:06:05.659Z,15.50
2022-11-10T14:11:35.061Z,16.25
2022-11-10T14:16:57.170Z,15.80
2022-11-10T14:22:23.926Z,20.20
2022-11-10T14:27:46.709Z,24.55
2022-11-10T14:33:11.921Z,26.05
2022-11-10T14:38:35.663Z,17.17
2022-11-10T14:44:06.576Z,15.88
2022-11-10T14:49:27.924Z,12.32
2022-11-10T14:54:49.465Z,14.85
2022-11-10T15:00:18.449Z,9.82
2022-11-10T15:11:01.255Z,16.77
2022-11-10T15:16:26.774Z,10.25
2022-11-10T15:21:48.157Z,13.07
2022-11-10T15:27:14.163Z,10.93
2022-11-10T15:32:42.247Z,14.30
2022-11-10T15:38:05.878Z,10.90
2022-11-10T15:43:28.629Z,11.43
2022-11-10T15:48:53.664Z,12.10
2022-11-10T15:54:16.670Z,16.88
2022-11-10T15:59:37.820Z,13.93
2022-11-10T16:05:00.931Z,12.60
2022-11-10T16:10:24.664Z,11.60
2022-11-10T16:15:46.433Z,15.27
2022-11-10T16:21:13.267Z,10.98
2022-11-10T16:26:35.368Z,17.13
2022-11-10T16:31:56.638Z,10.00
2022-11-10T16:37:19.840Z,14.27
2022-11-10T16:42:41.318Z,10.90
2022-11-10T16:48:02.669Z,13.25
2022-11-10T16:53:28.063Z,10.80
2022-11-10T16:58:50.348Z,13.57
2022-11-10T17:04:14.190Z,9.07
2022-11-10T17:09:37.041Z,10.48
2022-11-10T17:14:58.315Z,14.63
2022-11-10T17:20:22.687Z,9.05
2022-11-10T17:25:45.662Z,13.38
2022-11-10T17:31:07.160Z,8.70
2022-11-10T17:36:29.021Z,8.98
2022-11-10T17:41:51.644Z,12.90
2022-11-10T17:47:12.916Z,9.20
2022-11-10T17:52:34.144Z,13.30
2022-11-10T17:57:57.296Z,10.88
2022-11-10T18:03:20.707Z,12.50
2022-11-10T18:08:42.284Z,12.90
2022-11-10T18:14:04.809Z,12.32
2022-11-10T18:19:26.055Z,8.63
2022-11-10T18:24:47.551Z,13.23
2022-11-10T18:30:11.450Z,13.48
2022-11-10T18:35:33.117Z,11.60
2022-11-10T18:40:54.507Z,9.27
2022-11-10T18:46:17.446Z,11.88
2022-11-10T18:51:43.037Z,17.42
2022-11-10T19:09:36.752Z,12.90
2022-11-10T19:14:58.437Z,11.27
2022-11-10T19:20:20.132Z,9.63
2022-11-10T19:25:42.967Z,12.70
2022-11-10T19:31:06.923Z,10.98
2022-11-10T19:36:29.563Z,13.65
2022-11-10T19:41:52.650Z,8.73
2022-11-10T19:47:17.059Z,10.23
2022-11-10T19:52:38.870Z,7.07
2022-11-10T19:58:02.302Z,10.07
2022-11-10T20:03:26.145Z,6.18
2022-11-10T20:08:47.679Z,9.82
2022-11-10T20:14:15.088Z,10.30
2022-11-10T20:19:40.831Z,9.20
2022-11-10T20:25:05.849Z,9.30
2022-11-10T20:30:30.924Z,9.20
2022-11-10T20:49:28.604Z,6.10
2022-11-10T21:09:10.953Z,6.85
2022-11-10T21:14:32.514Z,9.18
2022-11-10T21:19:55.078Z,5.95
2022-11-10T21:25:20.555Z,8.65
2022-11-10T21:30:42.041Z,9.55
2022-11-10T21:36:06.546Z,7.00
2022-11-10T21:41:29.356Z,8.45
2022-11-10T21:46:52.544Z,9.00
2022-11-10T21:52:13.866Z,8.00
2022-11-10T21:58:01.014Z,10.10
2022-11-10T22:03:24.086Z,9.35
2022-11-10T22:08:48.846Z,8.27
2022-11-10T22:14:31.044Z,8.05
2022-11-10T22:19:55.522Z,8.07
2022-11-10T22:25:16.853Z,10.65
2022-11-10T22:30:39.760Z,8.07
2022-11-10T22:36:02.872Z,11.55
2022-11-10T22:41:41.745Z,8.27
2022-11-10T22:47:05.012Z,7.90
2022-11-10T22:52:26.598Z,6.93
2022-11-10T22:57:48.226Z,6.55
2022-11-10T23:03:13.009Z,10.35
2022-11-10T23:08:35.074Z,6.40
2022-11-10T23:13:57.029Z,7.65
2022-11-10T23:19:19.826Z,9.43
2022-11-10T23:24:40.977Z,8.75
2022-11-10T23:30:02.492Z,9.38
2022-11-10T23:35:25.435Z,9.02
2022-11-10T23:40:46.897Z,5.63
2022-11-10T23:46:08.521Z,7.20
2022-11-10T23:51:31.241Z,6.13
2022-11-10T23:56:53.018Z,10.40
